sensor_id;sensor_type;location;lat;lon;timestamp;P1;durP1;ratioP1;P2;durP2;ratioP2
36715;SDS011;22699;51.034;3.730;2023-09-19T00:01:20;6.80;;;1.48;;
36715;SDS011;22699;51.034;3.730;2023-09-19T00:03:45;7.65;;;2.05;;
36715;SDS011;22699;51.034;3.730;2023-09-19T00:06:11;10.52;;;1.90;;
36715;SDS011;22699;51.034;3.730;2023-09-19T00:08:41;6.35;;;1.45;;
36715;SDS011;22699;51.034;3.730;2023-09-19T00:11:10;6.60;;;1.43;;
36715;SDS011;22699;51.034;3.730;2023-09-19T00:13:38;8.05;;;2.13;;
36715;SDS011;22699;51.034;3.730;2023-09-19T00:16:10;7.50;;;2.30;;
36715;SDS011;22699;51.034;3.730;2023-09-19T00:18:37;7.30;;;2.13;;
36715;SDS011;22699;51.034;3.730;2023-09-19T00:21:03;9.35;;;1.77;;
36715;SDS011;22699;51.034;3.730;2023-09-19T00:23:32;8.98;;;3.28;;
36715;SDS011;22699;51.034;3.730;2023-09-19T00:25:58;9.13;;;2.10;;
36715;SDS011;22699;51.034;3.730;2023-09-19T00:28:25;6.75;;;1.95;;
36715;SDS011;22699;51.034;3.730;2023-09-19T00:30:51;10.75;;;1.98;;
36715;SDS011;22699;51.034;3.730;2023-09-19T00:33:18;8.27;;;1.90;;
36715;SDS011;22699;51.034;3.730;2023-09-19T00:35:48;10.20;;;2.15;;
36715;SDS011;22699;51.034;3.730;2023-09-19T00:38:14;6.95;;;2.10;;
36715;SDS011;22699;51.034;3.730;2023-09-19T00:40:46;7.30;;;1.90;;
36715;SDS011;22699;51.034;3.730;2023-09-19T00:43:12;10.23;;;1.90;;
36715;SDS011;22699;51.034;3.730;2023-09-19T00:45:42;11.38;;;2.40;;
36715;SDS011;22699;51.034;3.730;2023-09-19T00:48:14;7.97;;;1.85;;
36715;SDS011;22699;51.034;3.730;2023-09-19T00:50:41;11.82;;;2.33;;
36715;SDS011;22699;51.034;3.730;2023-09-19T00:53:09;13.48;;;2.60;;
36715;SDS011;22699;51.034;3.730;2023-09-19T00:55:39;11.90;;;2.85;;
36715;SDS011;22699;51.034;3.730;2023-09-19T00:58:08;12.57;;;3.10;;
36715;SDS011;22699;51.034;3.730;2023-09-19T01:00:35;8.73;;;2.00;;
36715;SDS011;22699;51.034;3.730;2023-09-19T01:03:01;12.95;;;1.90;;
36715;SDS011;22699;51.034;3.730;2023-09-19T01:05:28;7.35;;;1.88;;
36715;SDS011;22699;51.034;3.730;2023-09-19T01:07:54;7.18;;;2.13;;
36715;SDS011;22699;51.034;3.730;2023-09-19T01:10:20;8.52;;;2.47;;
36715;SDS011;22699;51.034;3.730;2023-09-19T01:15:28;9.30;;;2.72;;
36715;SDS011;22699;51.034;3.730;2023-09-19T01:23:53;13.50;;;2.60;;
36715;SDS011;22699;51.034;3.730;2023-09-19T01:32:03;10.57;;;3.08;;
36715;SDS011;22699;51.034;3.730;2023-09-19T01:34:50;11.60;;;2.65;;
36715;SDS011;22699;51.034;3.730;2023-09-19T01:37:20;9.77;;;2.63;;
36715;SDS011;22699;51.034;3.730;2023-09-19T01:39:51;11.88;;;2.10;;
36715;SDS011;22699;51.034;3.730;2023-09-19T01:42:44;7.80;;;2.25;;
36715;SDS011;22699;51.034;3.730;2023-09-19T01:45:19;18.85;;;3.70;;
36715;SDS011;22699;51.034;3.730;2023-09-19T01:51:06;9.35;;;2.65;;
36715;SDS011;22699;51.034;3.730;2023-09-19T01:53:36;13.55;;;2.88;;
36715;SDS011;22699;51.034;3.730;2023-09-19T01:58:42;11.30;;;2.22;;
36715;SDS011;22699;51.034;3.730;2023-09-19T02:01:15;15.13;;;3.10;;
36715;SDS011;22699;51.034;3.730;2023-09-19T02:03:45;11.13;;;2.85;;
36715;SDS011;22699;51.034;3.730;2023-09-19T02:06:16;17.52;;;2.83;;
36715;SDS011;22699;51.034;3.730;2023-09-19T02:08:43;8.98;;;2.05;;
36715;SDS011;22699;51.034;3.730;2023-09-19T02:11:11;14.00;;;3.03;;
36715;SDS011;22699;51.034;3.730;2023-09-19T02:13:38;17.65;;;3.67;;
36715;SDS011;22699;51.034;3.730;2023-09-19T02:16:04;12.38;;;2.22;;
36715;SDS011;22699;51.034;3.730;2023-09-19T02:18:32;11.07;;;2.55;;
36715;SDS011;22699;51.034;3.730;2023-09-19T02:21:00;10.52;;;2.65;;
36715;SDS011;22699;51.034;3.730;2023-09-19T02:23:30;11.50;;;2.33;;
36715;SDS011;22699;51.034;3.730;2023-09-19T02:26:00;11.20;;;2.53;;
36715;SDS011;22699;51.034;3.730;2023-09-19T02:28:26;12.18;;;2.30;;
36715;SDS011;22699;51.034;3.730;2023-09-19T02:31:01;6.68;;;2.35;;
36715;SDS011;22699;51.034;3.730;2023-09-19T02:33:27;10.68;;;2.45;;
36715;SDS011;22699;51.034;3.730;2023-09-19T02:35:57;13.20;;;2.72;;
36715;SDS011;22699;51.034;3.730;2023-09-19T02:38:24;12.60;;;2.45;;
36715;SDS011;22699;51.034;3.730;2023-09-19T02:40:52;10.68;;;2.60;;
36715;SDS011;22699;51.034;3.730;2023-09-19T02:43:20;12.48;;;2.53;;
36715;SDS011;22699;51.034;3.730;2023-09-19T02:45:47;10.93;;;2.35;;
36715;SDS011;22699;51.034;3.730;2023-09-19T02:48:15;11.65;;;2.33;;
36715;SDS011;22699;51.034;3.730;2023-09-19T02:50:41;12.65;;;2.53;;
36715;SDS011;22699;51.034;3.730;2023-09-19T02:53:07;10.73;;;2.63;;
36715;SDS011;22699;51.034;3.730;2023-09-19T02:55:33;18.00;;;3.78;;
36715;SDS011;22699;51.034;3.730;2023-09-19T02:57:59;13.80;;;2.63;;
36715;SDS011;22699;51.034;3.730;2023-09-19T03:00:26;7.75;;;2.10;;
36715;SDS011;22699;51.034;3.730;2023-09-19T03:02:53;12.00;;;2.70;;
36715;SDS011;22699;51.034;3.730;2023-09-19T03:05:20;12.90;;;2.17;;
36715;SDS011;22699;51.034;3.730;2023-09-19T03:07:47;9.88;;;2.53;;
36715;SDS011;22699;51.034;3.730;2023-09-19T03:10:18;11.60;;;2.22;;
36715;SDS011;22699;51.034;3.730;2023-09-19T03:12:47;10.75;;;2.53;;
36715;SDS011;22699;51.034;3.730;2023-09-19T03:15:13;7.55;;;1.88;;
36715;SDS011;22699;51.034;3.730;2023-09-19T03:17:47;9.52;;;2.10;;
36715;SDS011;22699;51.034;3.730;2023-09-19T03:20:13;10.93;;;2.30;;
36715;SDS011;22699;51.034;3.730;2023-09-19T03:22:42;12.60;;;2.63;;
36715;SDS011;22699;51.034;3.730;2023-09-19T03:25:08;7.32;;;1.88;;
36715;SDS011;22699;51.034;3.730;2023-09-19T03:27:38;9.75;;;3.58;;
36715;SDS011;22699;51.034;3.730;2023-09-19T03:30:04;11.60;;;2.10;;
36715;SDS011;22699;51.034;3.730;2023-09-19T03:32:34;12.60;;;2.70;;
36715;SDS011;22699;51.034;3.730;2023-09-19T03:35:01;7.28;;;1.85;;
36715;SDS011;22699;51.034;3.730;2023-09-19T03:37:27;11.50;;;2.92;;
36715;SDS011;22699;51.034;3.730;2023-09-19T03:39:52;9.13;;;2.20;;
36715;SDS011;22699;51.034;3.730;2023-09-19T03:42:18;10.73;;;2.58;;
36715;SDS011;22699;51.034;3.730;2023-09-19T03:44:50;10.52;;;3.00;;
36715;SDS011;22699;51.034;3.730;2023-09-19T03:47:17;11.10;;;3.35;;
36715;SDS011;22699;51.034;3.730;2023-09-19T03:49:44;9.10;;;2.40;;
36715;SDS011;22699;51.034;3.730;2023-09-19T03:52:09;12.80;;;3.05;;
36715;SDS011;22699;51.034;3.730;2023-09-19T03:54:36;10.60;;;2.60;;
36715;SDS011;22699;51.034;3.730;2023-09-19T03:57:02;15.13;;;2.88;;
36715;SDS011;22699;51.034;3.730;2023-09-19T03:59:28;9.35;;;2.40;;
36715;SDS011;22699;51.034;3.730;2023-09-19T04:01:54;11.35;;;2.42;;
36715;SDS011;22699;51.034;3.730;2023-09-19T04:04:22;10.27;;;3.08;;
36715;SDS011;22699;51.034;3.730;2023-09-19T04:06:50;9.68;;;2.47;;
36715;SDS011;22699;51.034;3.730;2023-09-19T04:09:17;12.98;;;2.40;;
36715;SDS011;22699;51.034;3.730;2023-09-19T04:11:43;9.18;;;2.25;;
36715;SDS011;22699;51.034;3.730;2023-09-19T04:14:08;11.98;;;2.40;;
36715;SDS011;22699;51.034;3.730;2023-09-19T04:16:34;11.77;;;2.42;;
36715;SDS011;22699;51.034;3.730;2023-09-19T04:19:00;13.23;;;2.55;;
36715;SDS011;22699;51.034;3.730;2023-09-19T04:21:26;13.23;;;2.85;;
36715;SDS011;22699;51.034;3.730;2023-09-19T04:23:53;12.23;;;2.38;;
36715;SDS011;22699;51.034;3.730;2023-09-19T04:26:18;14.57;;;3.33;;
36715;SDS011;22699;51.034;3.730;2023-09-19T04:28:44;15.82;;;2.60;;
36715;SDS011;22699;51.034;3.730;2023-09-19T04:31:11;14.13;;;2.90;;
36715;SDS011;22699;51.034;3.730;2023-09-19T04:33:37;11.32;;;2.53;;
36715;SDS011;22699;51.034;3.730;2023-09-19T04:36:02;12.15;;;3.35;;
36715;SDS011;22699;51.034;3.730;2023-09-19T04:38:30;15.02;;;3.25;;
36715;SDS011;22699;51.034;3.730;2023-09-19T04:40:59;11.30;;;2.30;;
36715;SDS011;22699;51.034;3.730;2023-09-19T04:43:25;16.70;;;3.22;;
36715;SDS011;22699;51.034;3.730;2023-09-19T04:45:52;21.75;;;2.83;;
36715;SDS011;22699;51.034;3.730;2023-09-19T04:48:21;14.25;;;3.28;;
36715;SDS011;22699;51.034;3.730;2023-09-19T04:50:49;14.05;;;2.30;;
36715;SDS011;22699;51.034;3.730;2023-09-19T04:53:16;12.20;;;2.25;;
36715;SDS011;22699;51.034;3.730;2023-09-19T04:55:42;11.57;;;2.25;;
36715;SDS011;22699;51.034;3.730;2023-09-19T04:58:08;10.55;;;2.90;;
36715;SDS011;22699;51.034;3.730;2023-09-19T05:00:34;14.38;;;3.25;;
36715;SDS011;22699;51.034;3.730;2023-09-19T05:03:00;13.02;;;2.67;;
36715;SDS011;22699;51.034;3.730;2023-09-19T05:05:26;10.98;;;2.30;;
36715;SDS011;22699;51.034;3.730;2023-09-19T05:07:52;15.60;;;3.13;;
36715;SDS011;22699;51.034;3.730;2023-09-19T05:10:19;14.48;;;2.63;;
36715;SDS011;22699;51.034;3.730;2023-09-19T05:12:45;12.55;;;2.35;;
36715;SDS011;22699;51.034;3.730;2023-09-19T05:15:13;17.13;;;2.63;;
36715;SDS011;22699;51.034;3.730;2023-09-19T05:17:42;15.57;;;3.55;;
36715;SDS011;22699;51.034;3.730;2023-09-19T05:20:13;19.60;;;4.30;;
36715;SDS011;22699;51.034;3.730;2023-09-19T05:22:43;15.63;;;2.95;;
36715;SDS011;22699;51.034;3.730;2023-09-19T05:25:11;14.18;;;2.97;;
36715;SDS011;22699;51.034;3.730;2023-09-19T05:27:43;12.85;;;2.22;;
36715;SDS011;22699;51.034;3.730;2023-09-19T05:30:09;12.48;;;2.63;;
36715;SDS011;22699;51.034;3.730;2023-09-19T05:32:35;13.48;;;2.72;;
36715;SDS011;22699;51.034;3.730;2023-09-19T05:35:00;15.38;;;3.20;;
36715;SDS011;22699;51.034;3.730;2023-09-19T05:37:26;13.13;;;3.13;;
36715;SDS011;22699;51.034;3.730;2023-09-19T05:39:53;11.55;;;3.22;;
36715;SDS011;22699;51.034;3.730;2023-09-19T05:42:20;12.73;;;2.70;;
36715;SDS011;22699;51.034;3.730;2023-09-19T05:44:46;10.70;;;2.60;;
36715;SDS011;22699;51.034;3.730;2023-09-19T05:47:11;19.08;;;3.55;;
36715;SDS011;22699;51.034;3.730;2023-09-19T05:49:38;14.75;;;2.50;;
36715;SDS011;22699;51.034;3.730;2023-09-19T05:52:06;21.80;;;3.10;;
36715;SDS011;22699;51.034;3.730;2023-09-19T05:54:32;16.95;;;2.58;;
36715;SDS011;22699;51.034;3.730;2023-09-19T05:57:02;11.95;;;2.55;;
36715;SDS011;22699;51.034;3.730;2023-09-19T05:59:28;16.73;;;3.35;;
36715;SDS011;22699;51.034;3.730;2023-09-19T06:01:54;12.60;;;2.42;;
36715;SDS011;22699;51.034;3.730;2023-09-19T06:04:20;11.52;;;2.90;;
36715;SDS011;22699;51.034;3.730;2023-09-19T06:06:46;13.10;;;3.05;;
36715;SDS011;22699;51.034;3.730;2023-09-19T06:09:14;10.82;;;3.05;;
36715;SDS011;22699;51.034;3.730;2023-09-19T06:11:43;13.35;;;2.72;;
36715;SDS011;22699;51.034;3.730;2023-09-19T06:14:08;13.18;;;3.00;;
36715;SDS011;22699;51.034;3.730;2023-09-19T06:16:35;14.65;;;3.33;;
36715;SDS011;22699;51.034;3.730;2023-09-19T06:19:03;16.83;;;2.67;;
36715;SDS011;22699;51.034;3.730;2023-09-19T06:21:31;12.02;;;2.45;;
36715;SDS011;22699;51.034;3.730;2023-09-19T06:23:57;10.77;;;2.55;;
36715;SDS011;22699;51.034;3.730;2023-09-19T06:26:23;18.02;;;2.75;;
36715;SDS011;22699;51.034;3.730;2023-09-19T06:28:49;13.30;;;2.70;;
36715;SDS011;22699;51.034;3.730;2023-09-19T06:31:15;9.32;;;2.28;;
36715;SDS011;22699;51.034;3.730;2023-09-19T06:33:40;12.10;;;2.50;;
36715;SDS011;22699;51.034;3.730;2023-09-19T06:36:08;10.05;;;2.63;;
36715;SDS011;22699;51.034;3.730;2023-09-19T06:38:33;16.60;;;2.60;;
36715;SDS011;22699;51.034;3.730;2023-09-19T06:41:01;15.63;;;2.60;;
36715;SDS011;22699;51.034;3.730;2023-09-19T06:43:31;14.00;;;2.30;;
36715;SDS011;22699;51.034;3.730;2023-09-19T06:45:57;12.25;;;2.50;;
36715;SDS011;22699;51.034;3.730;2023-09-19T06:48:24;10.23;;;2.72;;
36715;SDS011;22699;51.034;3.730;2023-09-19T06:50:52;8.07;;;2.38;;
36715;SDS011;22699;51.034;3.730;2023-09-19T06:53:20;13.15;;;2.63;;
36715;SDS011;22699;51.034;3.730;2023-09-19T06:55:45;14.13;;;2.67;;
36715;SDS011;22699;51.034;3.730;2023-09-19T06:58:12;9.05;;;2.70;;
36715;SDS011;22699;51.034;3.730;2023-09-19T07:00:38;12.82;;;3.28;;
36715;SDS011;22699;51.034;3.730;2023-09-19T07:03:05;16.13;;;3.10;;
36715;SDS011;22699;51.034;3.730;2023-09-19T07:05:38;9.32;;;2.67;;
36715;SDS011;22699;51.034;3.730;2023-09-19T07:08:05;10.15;;;2.30;;
36715;SDS011;22699;51.034;3.730;2023-09-19T07:10:32;6.60;;;1.88;;
36715;SDS011;22699;51.034;3.730;2023-09-19T07:13:02;10.70;;;2.42;;
36715;SDS011;22699;51.034;3.730;2023-09-19T07:15:31;14.93;;;2.67;;
36715;SDS011;22699;51.034;3.730;2023-09-19T07:18:03;7.38;;;2.17;;
36715;SDS011;22699;51.034;3.730;2023-09-19T07:20:31;9.95;;;2.63;;
36715;SDS011;22699;51.034;3.730;2023-09-19T07:22:58;13.73;;;2.83;;
36715;SDS011;22699;51.034;3.730;2023-09-19T07:25:27;18.30;;;3.25;;
36715;SDS011;22699;51.034;3.730;2023-09-19T07:27:59;7.47;;;2.22;;
36715;SDS011;22699;51.034;3.730;2023-09-19T07:30:27;8.75;;;2.28;;
36715;SDS011;22699;51.034;3.730;2023-09-19T07:32:53;10.65;;;2.28;;
36715;SDS011;22699;51.034;3.730;2023-09-19T07:35:19;12.25;;;2.30;;
36715;SDS011;22699;51.034;3.730;2023-09-19T07:37:48;9.88;;;2.20;;
36715;SDS011;22699;51.034;3.730;2023-09-19T07:40:14;11.45;;;2.38;;
36715;SDS011;22699;51.034;3.730;2023-09-19T07:42:40;13.23;;;2.25;;
36715;SDS011;22699;51.034;3.730;2023-09-19T07:45:07;11.15;;;3.08;;
36715;SDS011;22699;51.034;3.730;2023-09-19T07:47:33;9.40;;;2.72;;
36715;SDS011;22699;51.034;3.730;2023-09-19T07:50:01;13.00;;;2.45;;
36715;SDS011;22699;51.034;3.730;2023-09-19T07:52:28;12.65;;;2.60;;
36715;SDS011;22699;51.034;3.730;2023-09-19T07:54:54;10.73;;;2.33;;
36715;SDS011;22699;51.034;3.730;2023-09-19T07:57:22;8.30;;;1.90;;
36715;SDS011;22699;51.034;3.730;2023-09-19T07:59:48;9.48;;;2.85;;
36715;SDS011;22699;51.034;3.730;2023-09-19T08:02:13;10.77;;;2.45;;
36715;SDS011;22699;51.034;3.730;2023-09-19T08:04:43;11.07;;;2.97;;
36715;SDS011;22699;51.034;3.730;2023-09-19T08:07:11;14.02;;;2.88;;
36715;SDS011;22699;51.034;3.730;2023-09-19T08:09:38;8.35;;;1.98;;
36715;SDS011;22699;51.034;3.730;2023-09-19T08:12:07;12.50;;;2.20;;
36715;SDS011;22699;51.034;3.730;2023-09-19T08:14:35;8.93;;;1.90;;
36715;SDS011;22699;51.034;3.730;2023-09-19T08:17:03;9.82;;;1.95;;
36715;SDS011;22699;51.034;3.730;2023-09-19T08:19:34;7.63;;;1.90;;
36715;SDS011;22699;51.034;3.730;2023-09-19T08:21:59;8.80;;;2.78;;
36715;SDS011;22699;51.034;3.730;2023-09-19T08:24:30;11.15;;;2.00;;
36715;SDS011;22699;51.034;3.730;2023-09-19T08:26:57;11.13;;;1.90;;
36715;SDS011;22699;51.034;3.730;2023-09-19T08:29:23;8.35;;;2.38;;
36715;SDS011;22699;51.034;3.730;2023-09-19T08:31:53;14.18;;;2.30;;
36715;SDS011;22699;51.034;3.730;2023-09-19T08:34:19;10.90;;;1.80;;
36715;SDS011;22699;51.034;3.730;2023-09-19T08:36:47;11.98;;;2.40;;
36715;SDS011;22699;51.034;3.730;2023-09-19T08:39:13;9.50;;;2.33;;
36715;SDS011;22699;51.034;3.730;2023-09-19T08:41:39;5.60;;;1.70;;
36715;SDS011;22699;51.034;3.730;2023-09-19T08:44:05;11.70;;;2.03;;
36715;SDS011;22699;51.034;3.730;2023-09-19T08:46:31;10.75;;;2.03;;
36715;SDS011;22699;51.034;3.730;2023-09-19T08:49:04;9.05;;;2.00;;
36715;SDS011;22699;51.034;3.730;2023-09-19T08:54:21;14.98;;;2.83;;
36715;SDS011;22699;51.034;3.730;2023-09-19T08:56:53;9.88;;;2.33;;
36715;SDS011;22699;51.034;3.730;2023-09-19T08:59:24;15.85;;;2.38;;
36715;SDS011;22699;51.034;3.730;2023-09-19T09:01:54;8.50;;;1.90;;
36715;SDS011;22699;51.034;3.730;2023-09-19T09:04:22;11.10;;;2.40;;
36715;SDS011;22699;51.034;3.730;2023-09-19T09:06:47;11.38;;;2.42;;
36715;SDS011;22699;51.034;3.730;2023-09-19T09:09:19;10.20;;;1.90;;
36715;SDS011;22699;51.034;3.730;2023-09-19T09:11:45;8.52;;;1.98;;
36715;SDS011;22699;51.034;3.730;2023-09-19T09:14:15;9.15;;;2.10;;
36715;SDS011;22699;51.034;3.730;2023-09-19T09:16:42;10.20;;;2.28;;
36715;SDS011;22699;51.034;3.730;2023-09-19T09:19:07;8.52;;;2.03;;
36715;SDS011;22699;51.034;3.730;2023-09-19T09:21:33;8.35;;;2.10;;
36715;SDS011;22699;51.034;3.730;2023-09-19T09:26:58;7.70;;;1.80;;
36715;SDS011;22699;51.034;3.730;2023-09-19T09:34:55;8.02;;;1.73;;
36715;SDS011;22699;51.034;3.730;2023-09-19T09:37:22;9.18;;;1.55;;
36715;SDS011;22699;51.034;3.730;2023-09-19T09:39:56;6.35;;;1.50;;
36715;SDS011;22699;51.034;3.730;2023-09-19T09:47:58;5.85;;;1.38;;
36715;SDS011;22699;51.034;3.730;2023-09-19T09:53:22;10.15;;;2.15;;
36715;SDS011;22699;51.034;3.730;2023-09-19T09:56:08;8.18;;;1.83;;
36715;SDS011;22699;51.034;3.730;2023-09-19T09:58:36;8.30;;;1.42;;
36715;SDS011;22699;51.034;3.730;2023-09-19T10:01:21;6.72;;;1.50;;
36715;SDS011;22699;51.034;3.730;2023-09-19T10:03:52;6.72;;;1.58;;
36715;SDS011;22699;51.034;3.730;2023-09-19T10:06:24;8.40;;;1.55;;
36715;SDS011;22699;51.034;3.730;2023-09-19T10:11:31;7.28;;;2.03;;
36715;SDS011;22699;51.034;3.730;2023-09-19T10:14:02;5.82;;;1.00;;
36715;SDS011;22699;51.034;3.730;2023-09-19T10:16:32;7.78;;;1.30;;
36715;SDS011;22699;51.034;3.730;2023-09-19T10:19:01;4.57;;;1.20;;
36715;SDS011;22699;51.034;3.730;2023-09-19T10:21:31;7.20;;;1.52;;
36715;SDS011;22699;51.034;3.730;2023-09-19T10:23:58;8.05;;;1.27;;
36715;SDS011;22699;51.034;3.730;2023-09-19T10:26:27;6.28;;;1.20;;
36715;SDS011;22699;51.034;3.730;2023-09-19T10:28:56;3.97;;;0.80;;
36715;SDS011;22699;51.034;3.730;2023-09-19T10:31:26;6.30;;;1.45;;
36715;SDS011;22699;51.034;3.730;2023-09-19T10:33:53;8.55;;;1.38;;
36715;SDS011;22699;51.034;3.730;2023-09-19T10:36:21;8.85;;;2.05;;
36715;SDS011;22699;51.034;3.730;2023-09-19T10:38:51;4.35;;;0.77;;
36715;SDS011;22699;51.034;3.730;2023-09-19T10:41:20;10.68;;;1.52;;
36715;SDS011;22699;51.034;3.730;2023-09-19T10:43:48;4.20;;;0.90;;
36715;SDS011;22699;51.034;3.730;2023-09-19T10:46:16;5.25;;;0.90;;
36715;SDS011;22699;51.034;3.730;2023-09-19T10:48:41;7.13;;;0.85;;
36715;SDS011;22699;51.034;3.730;2023-09-19T10:51:18;6.00;;;0.90;;
36715;SDS011;22699;51.034;3.730;2023-09-19T10:53:57;4.55;;;1.23;;
36715;SDS011;22699;51.034;3.730;2023-09-19T10:56:35;4.10;;;0.80;;
36715;SDS011;22699;51.034;3.730;2023-09-19T11:04:28;3.45;;;0.80;;
36715;SDS011;22699;51.034;3.730;2023-09-19T11:07:06;3.97;;;1.00;;
36715;SDS011;22699;51.034;3.730;2023-09-19T11:09:48;2.83;;;0.70;;
36715;SDS011;22699;51.034;3.730;2023-09-19T11:15:06;4.27;;;0.97;;
36715;SDS011;22699;51.034;3.730;2023-09-19T11:17:34;3.95;;;0.90;;
36715;SDS011;22699;51.034;3.730;2023-09-19T11:30:51;5.15;;;0.88;;
36715;SDS011;22699;51.034;3.730;2023-09-19T11:33:27;6.43;;;0.80;;
36715;SDS011;22699;51.034;3.730;2023-09-19T11:36:05;4.90;;;1.00;;
36715;SDS011;22699;51.034;3.730;2023-09-19T11:46:26;4.25;;;0.90;;
36715;SDS011;22699;51.034;3.730;2023-09-19T11:49:07;5.28;;;0.80;;
36715;SDS011;22699;51.034;3.730;2023-09-19T11:51:43;5.18;;;1.00;;
36715;SDS011;22699;51.034;3.730;2023-09-19T11:54:13;3.47;;;0.70;;
36715;SDS011;22699;51.034;3.730;2023-09-19T11:56:48;8.88;;;0.85;;
36715;SDS011;22699;51.034;3.730;2023-09-19T11:59:28;8.05;;;1.08;;
36715;SDS011;22699;51.034;3.730;2023-09-19T12:01:56;6.30;;;1.33;;
36715;SDS011;22699;51.034;3.730;2023-09-19T12:04:41;5.38;;;0.95;;
36715;SDS011;22699;51.034;3.730;2023-09-19T12:07:15;4.85;;;1.50;;
36715;SDS011;22699;51.034;3.730;2023-09-19T12:09:44;4.30;;;1.38;;
36715;SDS011;22699;51.034;3.730;2023-09-19T12:12:23;5.72;;;1.50;;
36715;SDS011;22699;51.034;3.730;2023-09-19T12:14:54;4.18;;;1.10;;
36715;SDS011;22699;51.034;3.730;2023-09-19T12:17:24;5.00;;;1.38;;
36715;SDS011;22699;51.034;3.730;2023-09-19T12:20:10;5.28;;;1.00;;
36715;SDS011;22699;51.034;3.730;2023-09-19T12:22:42;4.72;;;1.10;;
36715;SDS011;22699;51.034;3.730;2023-09-19T12:25:10;7.43;;;1.40;;
36715;SDS011;22699;51.034;3.730;2023-09-19T12:27:46;6.05;;;1.40;;
36715;SDS011;22699;51.034;3.730;2023-09-19T12:30:16;5.70;;;1.33;;
36715;SDS011;22699;51.034;3.730;2023-09-19T12:33:02;6.00;;;1.40;;
36715;SDS011;22699;51.034;3.730;2023-09-19T12:35:31;7.00;;;1.67;;
36715;SDS011;22699;51.034;3.730;2023-09-19T12:38:00;5.00;;;1.35;;
36715;SDS011;22699;51.034;3.730;2023-09-19T12:40:28;4.40;;;1.30;;
36715;SDS011;22699;51.034;3.730;2023-09-19T12:42:54;5.72;;;1.20;;
36715;SDS011;22699;51.034;3.730;2023-09-19T12:45:20;10.00;;;1.25;;
36715;SDS011;22699;51.034;3.730;2023-09-19T12:53:38;5.00;;;1.40;;
36715;SDS011;22699;51.034;3.730;2023-09-19T12:56:10;7.25;;;1.10;;
36715;SDS011;22699;51.034;3.730;2023-09-19T13:01:16;5.63;;;1.35;;
36715;SDS011;22699;51.034;3.730;2023-09-19T13:03:42;10.13;;;1.83;;
36715;SDS011;22699;51.034;3.730;2023-09-19T13:06:08;5.53;;;1.25;;
36715;SDS011;22699;51.034;3.730;2023-09-19T13:08:35;11.52;;;1.50;;
36715;SDS011;22699;51.034;3.730;2023-09-19T13:11:17;7.22;;;1.50;;
36715;SDS011;22699;51.034;3.730;2023-09-19T13:19:42;8.80;;;1.30;;
36715;SDS011;22699;51.034;3.730;2023-09-19T13:25:03;6.68;;;1.30;;
36715;SDS011;22699;51.034;3.730;2023-09-19T13:27:41;4.45;;;1.20;;
36715;SDS011;22699;51.034;3.730;2023-09-19T13:30:09;4.40;;;0.98;;
36715;SDS011;22699;51.034;3.730;2023-09-19T13:32:37;6.03;;;1.40;;
36715;SDS011;22699;51.034;3.730;2023-09-19T13:35:09;4.45;;;1.52;;
36715;SDS011;22699;51.034;3.730;2023-09-19T13:37:43;8.70;;;1.60;;
36715;SDS011;22699;51.034;3.730;2023-09-19T13:42:40;4.97;;;1.23;;
36715;SDS011;22699;51.034;3.730;2023-09-19T13:45:08;6.20;;;1.20;;
36715;SDS011;22699;51.034;3.730;2023-09-19T13:47:37;5.20;;;2.22;;
36715;SDS011;22699;51.034;3.730;2023-09-19T13:50:07;5.97;;;1.63;;
36715;SDS011;22699;51.034;3.730;2023-09-19T13:52:33;5.72;;;1.40;;
36715;SDS011;22699;51.034;3.730;2023-09-19T13:54:58;4.82;;;1.40;;
36715;SDS011;22699;51.034;3.730;2023-09-19T13:57:26;9.13;;;1.33;;
36715;SDS011;22699;51.034;3.730;2023-09-19T13:59:52;3.65;;;1.52;;
36715;SDS011;22699;51.034;3.730;2023-09-19T14:02:22;7.38;;;1.30;;
36715;SDS011;22699;51.034;3.730;2023-09-19T14:04:48;4.20;;;1.60;;
36715;SDS011;22699;51.034;3.730;2023-09-19T14:07:15;4.55;;;1.23;;
36715;SDS011;22699;51.034;3.730;2023-09-19T14:09:43;6.80;;;2.20;;
36715;SDS011;22699;51.034;3.730;2023-09-19T14:12:10;6.57;;;1.67;;
36715;SDS011;22699;51.034;3.730;2023-09-19T14:14:36;6.28;;;2.40;;
36715;SDS011;22699;51.034;3.730;2023-09-19T14:17:03;5.53;;;1.33;;
36715;SDS011;22699;51.034;3.730;2023-09-19T14:19:29;4.68;;;1.10;;
36715;SDS011;22699;51.034;3.730;2023-09-19T14:21:55;4.43;;;1.92;;
36715;SDS011;22699;51.034;3.730;2023-09-19T14:24:22;7.05;;;1.65;;
36715;SDS011;22699;51.034;3.730;2023-09-19T14:26:48;5.32;;;1.73;;
36715;SDS011;22699;51.034;3.730;2023-09-19T14:29:16;6.60;;;1.80;;
36715;SDS011;22699;51.034;3.730;2023-09-19T14:31:43;5.90;;;1.58;;
36715;SDS011;22699;51.034;3.730;2023-09-19T14:34:09;8.32;;;1.67;;
36715;SDS011;22699;51.034;3.730;2023-09-19T14:36:35;8.80;;;1.48;;
36715;SDS011;22699;51.034;3.730;2023-09-19T14:39:01;8.52;;;1.83;;
36715;SDS011;22699;51.034;3.730;2023-09-19T14:41:27;6.32;;;1.50;;
36715;SDS011;22699;51.034;3.730;2023-09-19T14:43:53;6.03;;;1.75;;
36715;SDS011;22699;51.034;3.730;2023-09-19T14:46:20;6.28;;;1.67;;
36715;SDS011;22699;51.034;3.730;2023-09-19T14:48:48;6.43;;;2.22;;
36715;SDS011;22699;51.034;3.730;2023-09-19T14:51:13;4.53;;;1.48;;
36715;SDS011;22699;51.034;3.730;2023-09-19T14:56:08;9.40;;;1.95;;
36715;SDS011;22699;51.034;3.730;2023-09-19T14:58:35;6.93;;;1.77;;
36715;SDS011;22699;51.034;3.730;2023-09-19T15:01:05;8.02;;;1.77;;
36715;SDS011;22699;51.034;3.730;2023-09-19T15:03:32;7.07;;;1.73;;
36715;SDS011;22699;51.034;3.730;2023-09-19T15:06:09;6.03;;;1.23;;
36715;SDS011;22699;51.034;3.730;2023-09-19T15:08:39;6.82;;;1.70;;
36715;SDS011;22699;51.034;3.730;2023-09-19T15:11:07;4.97;;;1.30;;
36715;SDS011;22699;51.034;3.730;2023-09-19T15:13:36;8.13;;;1.67;;
36715;SDS011;22699;51.034;3.730;2023-09-19T15:16:06;5.18;;;1.20;;
36715;SDS011;22699;51.034;3.730;2023-09-19T15:18:38;4.72;;;1.63;;
36715;SDS011;22699;51.034;3.730;2023-09-19T15:21:09;8.63;;;2.00;;
36715;SDS011;22699;51.034;3.730;2023-09-19T15:23:37;9.63;;;1.90;;
36715;SDS011;22699;51.034;3.730;2023-09-19T15:26:06;7.85;;;1.90;;
36715;SDS011;22699;51.034;3.730;2023-09-19T15:28:36;8.57;;;2.10;;
36715;SDS011;22699;51.034;3.730;2023-09-19T15:31:09;6.10;;;2.05;;
36715;SDS011;22699;51.034;3.730;2023-09-19T15:33:36;8.85;;;2.13;;
36715;SDS011;22699;51.034;3.730;2023-09-19T15:36:08;5.07;;;2.05;;
36715;SDS011;22699;51.034;3.730;2023-09-19T15:41:26;8.93;;;2.20;;
36715;SDS011;22699;51.034;3.730;2023-09-19T15:46:25;5.35;;;1.85;;
36715;SDS011;22699;51.034;3.730;2023-09-19T15:49:01;11.63;;;2.15;;
36715;SDS011;22699;51.034;3.730;2023-09-19T15:51:27;6.15;;;1.58;;
36715;SDS011;22699;51.034;3.730;2023-09-19T15:53:54;10.68;;;1.70;;
36715;SDS011;22699;51.034;3.730;2023-09-19T15:56:24;5.57;;;1.88;;
36715;SDS011;22699;51.034;3.730;2023-09-19T15:58:55;7.53;;;1.70;;
36715;SDS011;22699;51.034;3.730;2023-09-19T16:03:53;6.07;;;1.80;;
36715;SDS011;22699;51.034;3.730;2023-09-19T16:08:51;8.15;;;2.15;;
36715;SDS011;22699;51.034;3.730;2023-09-19T16:11:18;8.98;;;1.92;;
36715;SDS011;22699;51.034;3.730;2023-09-19T16:13:49;8.23;;;2.03;;
36715;SDS011;22699;51.034;3.730;2023-09-19T16:16:16;8.23;;;1.90;;
36715;SDS011;22699;51.034;3.730;2023-09-19T16:18:54;11.55;;;2.25;;
36715;SDS011;22699;51.034;3.730;2023-09-19T16:21:22;6.70;;;2.05;;
36715;SDS011;22699;51.034;3.730;2023-09-19T16:23:50;9.45;;;2.30;;
36715;SDS011;22699;51.034;3.730;2023-09-19T16:26:17;7.22;;;2.05;;
36715;SDS011;22699;51.034;3.730;2023-09-19T16:28:45;8.52;;;2.65;;
36715;SDS011;22699;51.034;3.730;2023-09-19T16:31:14;8.18;;;2.08;;